QFA36 EDDM-YMML
Flight info
| Callsign | QFA36 |
|---|---|
| Flight time | N/A |
| Altitude | 39000 |
| Route | VAVOR3Q VAVOR DCT LATLO DCT OBEDI DCT GOLVA DCT OBUTI DCT TUVAR DCT ETIDA DCT RIXEN UL605 BAG UL614 VAKUL DCT OTENA DCT PAREX DCT ALTET DCT GABSU DCT VATAN DCT ORGEL P708 DATEN DCT DEBEN P708 GESIT DCT VELAM DCT RESAR P708 ALSEM DCT BOXOT N318 BOSEV DCT IMLIP DCT SIXIV N318 TOLDA P570 KITAL L894 GOLEM/N0502F350 L894 DADAR DCT 04S081E 09S085E/N0493F370 15S090E 20S095E 25S101E/N0479F390 28S105E DCT EBARR DCT 32S112E 34S117E 35S120E 36S125E 3630S12900E DCT RUFLE T131 BORTO DCT WENDY |
| Aircraft | A35K/H-SDE2E3GHIJ3J4J5LM1ORWXY/LB1D1 |
Departure
| Time | N/A |
|---|---|
| Airport | Munich Airport (EDDM) |
Arrival
| Time | 2026-04-30 09:07 |
|---|---|
| Airport | Melbourne Airport (YMML) |
| Time | Latitude | Longitude | Altitude | Speed | Heading |
|---|---|---|---|---|---|
| 2026-04-30 08:33 | -36.80911 | 142.07684 | 39223 ft | 495 kts | 26° |
| 2026-04-30 08:34 | -36.77802 | 142.09486 | 39225 ft | 490 kts | 13° |
| 2026-04-30 08:34 | -36.74489 | 142.10255 | 39226 ft | 480 kts | 358° |
| 2026-04-30 08:34 | -36.71206 | 142.09903 | 39200 ft | 470 kts | 343° |
| 2026-04-30 08:34 | -36.68172 | 142.08544 | 38751 ft | 459 kts | 328° |
| 2026-04-30 08:35 | -36.65620 | 142.06240 | 38157 ft | 452 kts | 313° |
| 2026-04-30 08:35 | -36.63719 | 142.03147 | 37633 ft | 450 kts | 297° |
| 2026-04-30 08:35 | -36.62612 | 141.99511 | 37108 ft | 452 kts | 282° |
| 2026-04-30 08:35 | -36.62370 | 141.95613 | 36603 ft | 456 kts | 268° |
| 2026-04-30 08:36 | -36.63023 | 141.91735 | 36109 ft | 463 kts | 253° |
| 2026-04-30 08:36 | -36.64545 | 141.88166 | 35627 ft | 473 kts | 237° |
| 2026-04-30 08:36 | -36.66834 | 141.85191 | 35152 ft | 482 kts | 222° |
| 2026-04-30 08:36 | -36.69732 | 141.83040 | 34671 ft | 490 kts | 207° |
| 2026-04-30 08:37 | -36.73032 | 141.81891 | 34208 ft | 498 kts | 191° |
| 2026-04-30 08:37 | -36.76510 | 141.81830 | 33680 ft | 504 kts | 176° |
| 2026-04-30 08:37 | -36.79967 | 141.82596 | 33153 ft | 505 kts | 170° |
| 2026-04-30 08:37 | -36.83386 | 141.83570 | 32637 ft | 503 kts | 169° |
| 2026-04-30 08:38 | -36.86785 | 141.84567 | 32157 ft | 500 kts | 169° |
| 2026-04-30 08:38 | -36.90160 | 141.85582 | 31951 ft | 498 kts | 167° |
| 2026-04-30 08:38 | -36.93331 | 141.87323 | 31824 ft | 500 kts | 148° |
| 2026-04-30 08:38 | -36.96028 | 141.90031 | 31702 ft | 498 kts | 132° |
| 2026-04-30 08:39 | -36.98067 | 141.93499 | 31580 ft | 493 kts | 116° |
| 2026-04-30 08:39 | -36.99317 | 141.97447 | 31457 ft | 486 kts | 101° |
| 2026-04-30 08:39 | -37.00110 | 142.01546 | 31337 ft | 485 kts | 99° |
| 2026-04-30 08:39 | -37.00958 | 142.05641 | 31215 ft | 487 kts | 103° |
| 2026-04-30 08:40 | -37.02058 | 142.09649 | 31102 ft | 488 kts | 108° |
| 2026-04-30 08:40 | -37.03412 | 142.13542 | 30977 ft | 489 kts | 112° |
| 2026-04-30 08:40 | -37.04403 | 142.16069 | 30896 ft | 488 kts | 114° |
| 2026-04-30 08:40 | -37.06018 | 142.21342 | 30731 ft | 482 kts | 103° |
| 2026-04-30 08:41 | -37.06558 | 142.24027 | 30662 ft | 479 kts | 97° |
| 2026-04-30 08:41 | -37.07014 | 142.28125 | 30538 ft | 474 kts | 91° |
| 2026-04-30 08:41 | -37.07287 | 142.32221 | 30423 ft | 472 kts | 90° |
| 2026-04-30 08:41 | -37.07517 | 142.36322 | 30298 ft | 470 kts | 89° |
| 2026-04-30 08:42 | -37.07731 | 142.40399 | 30154 ft | 469 kts | 89° |
| 2026-04-30 08:42 | -37.08118 | 142.44461 | 30017 ft | 472 kts | 97° |
| 2026-04-30 08:42 | -37.08998 | 142.48431 | 29885 ft | 475 kts | 108° |
| 2026-04-30 08:42 | -37.10438 | 142.52165 | 29737 ft | 478 kts | 118° |
| 2026-04-30 08:43 | -37.12195 | 142.55697 | 29604 ft | 478 kts | 121° |
| 2026-04-30 08:43 | -37.13999 | 142.59189 | 29465 ft | 477 kts | 121° |
| 2026-04-30 08:43 | -37.15804 | 142.62678 | 29331 ft | 476 kts | 121° |
| 2026-04-30 08:43 | -37.17601 | 142.66162 | 29193 ft | 475 kts | 121° |
| 2026-04-30 08:44 | -37.19390 | 142.69636 | 29059 ft | 474 kts | 121° |
| 2026-04-30 08:44 | -37.21173 | 142.73105 | 28927 ft | 473 kts | 121° |
| 2026-04-30 08:44 | -37.22952 | 142.76572 | 28788 ft | 472 kts | 121° |
| 2026-04-30 08:44 | -37.24727 | 142.80035 | 28660 ft | 471 kts | 121° |
| 2026-04-30 08:45 | -37.26496 | 142.83490 | 28514 ft | 470 kts | 121° |
| 2026-04-30 08:45 | -37.28258 | 142.86935 | 28395 ft | 469 kts | 121° |
| 2026-04-30 08:45 | -37.30017 | 142.90378 | 28264 ft | 468 kts | 121° |
| 2026-04-30 08:45 | -37.31770 | 142.93811 | 28129 ft | 467 kts | 121° |
| 2026-04-30 08:46 | -37.33498 | 142.97200 | 28009 ft | 466 kts | 121° |
| 2026-04-30 08:46 | -37.35242 | 143.00625 | 27875 ft | 465 kts | 121° |
| 2026-04-30 08:46 | -37.36983 | 143.04046 | 27748 ft | 464 kts | 121° |
| 2026-04-30 08:46 | -37.38717 | 143.07459 | 27539 ft | 463 kts | 121° |
| 2026-04-30 08:47 | -37.40450 | 143.10872 | 27312 ft | 461 kts | 121° |
| 2026-04-30 08:47 | -37.42172 | 143.14266 | 27088 ft | 460 kts | 121° |
| 2026-04-30 08:47 | -37.43889 | 143.17656 | 26697 ft | 459 kts | 121° |
| 2026-04-30 08:47 | -37.45602 | 143.21040 | 26028 ft | 461 kts | 121° |
| 2026-04-30 08:48 | -37.47331 | 143.24461 | 25328 ft | 464 kts | 121° |
| 2026-04-30 08:48 | -37.49068 | 143.27899 | 24633 ft | 467 kts | 121° |
| 2026-04-30 08:48 | -37.50796 | 143.31322 | 24073 ft | 454 kts | 122° |
| 2026-04-30 08:48 | -37.52454 | 143.34609 | 23507 ft | 434 kts | 122° |
| 2026-04-30 08:49 | -37.54038 | 143.37751 | 22968 ft | 417 kts | 122° |
| 2026-04-30 08:49 | -37.55592 | 143.40839 | 22452 ft | 417 kts | 121° |
| 2026-04-30 08:49 | -37.57141 | 143.43922 | 21923 ft | 416 kts | 121° |
| 2026-04-30 08:49 | -37.58690 | 143.47007 | 21419 ft | 416 kts | 121° |
| 2026-04-30 08:50 | -37.60236 | 143.50089 | 20897 ft | 416 kts | 121° |
| 2026-04-30 08:50 | -37.61778 | 143.53165 | 20379 ft | 415 kts | 121° |
| 2026-04-30 08:50 | -37.63317 | 143.56239 | 19849 ft | 414 kts | 121° |
| 2026-04-30 08:50 | -37.64853 | 143.59307 | 19333 ft | 413 kts | 121° |
| 2026-04-30 08:51 | -37.66386 | 143.62375 | 18811 ft | 412 kts | 121° |
| 2026-04-30 08:51 | -37.67911 | 143.65430 | 18244 ft | 411 kts | 121° |
| 2026-04-30 08:51 | -37.69433 | 143.68478 | 17669 ft | 410 kts | 121° |
| 2026-04-30 08:51 | -37.70958 | 143.71536 | 16957 ft | 412 kts | 121° |
| 2026-04-30 08:52 | -37.72481 | 143.74594 | 16344 ft | 407 kts | 121° |
| 2026-04-30 08:52 | -37.73952 | 143.77546 | 15858 ft | 392 kts | 121° |
| 2026-04-30 08:52 | -37.75396 | 143.80450 | 15355 ft | 388 kts | 121° |
| 2026-04-30 08:52 | -37.76802 | 143.83279 | 14866 ft | 376 kts | 121° |
| 2026-04-30 08:53 | -37.78181 | 143.86059 | 14392 ft | 371 kts | 120° |
| 2026-04-30 08:53 | -37.79542 | 143.88804 | 13901 ft | 367 kts | 120° |
| 2026-04-30 08:53 | -37.80890 | 143.91526 | 13400 ft | 364 kts | 120° |
| 2026-04-30 08:53 | -37.82222 | 143.94222 | 12923 ft | 360 kts | 120° |
| 2026-04-30 08:54 | -37.83362 | 143.97015 | 12472 ft | 354 kts | 107° |
| 2026-04-30 08:54 | -37.83723 | 144.00033 | 12083 ft | 344 kts | 84° |
| 2026-04-30 08:54 | -37.83466 | 144.03009 | 11710 ft | 337 kts | 78° |
| 2026-04-30 08:54 | -37.83111 | 144.05924 | 11348 ft | 333 kts | 78° |
| 2026-04-30 08:55 | -37.82761 | 144.08805 | 10977 ft | 330 kts | 78° |
| 2026-04-30 08:55 | -37.82420 | 144.11662 | 10609 ft | 327 kts | 78° |
| 2026-04-30 08:55 | -37.82090 | 144.14461 | 10310 ft | 323 kts | 79° |
| 2026-04-30 08:55 | -37.81768 | 144.17223 | 10164 ft | 312 kts | 79° |
| 2026-04-30 08:56 | -37.81455 | 144.19917 | 10037 ft | 300 kts | 79° |
| 2026-04-30 08:56 | -37.81159 | 144.22454 | 9861 ft | 294 kts | 78° |
| 2026-04-30 08:56 | -37.80856 | 144.25036 | 9547 ft | 298 kts | 79° |
| 2026-04-30 08:56 | -37.80550 | 144.27663 | 9246 ft | 298 kts | 78° |
| 2026-04-30 08:57 | -37.80246 | 144.30249 | 8942 ft | 297 kts | 78° |
| 2026-04-30 08:57 | -37.79946 | 144.32781 | 8702 ft | 293 kts | 78° |
| 2026-04-30 08:57 | -37.79646 | 144.35325 | 8498 ft | 294 kts | 78° |
| 2026-04-30 08:57 | -37.79344 | 144.37879 | 8228 ft | 293 kts | 78° |
| 2026-04-30 08:58 | -37.79043 | 144.40421 | 7928 ft | 292 kts | 78° |
| 2026-04-30 08:58 | -37.78744 | 144.42947 | 7613 ft | 290 kts | 78° |
| 2026-04-30 08:58 | -37.78599 | 144.45495 | 7308 ft | 292 kts | 91° |
| 2026-04-30 08:58 | -37.78842 | 144.48041 | 7002 ft | 292 kts | 97° |
| 2026-04-30 08:59 | -37.79174 | 144.50569 | 6689 ft | 291 kts | 97° |
| 2026-04-30 08:59 | -37.79507 | 144.53089 | 6375 ft | 290 kts | 97° |
| 2026-04-30 08:59 | -37.79832 | 144.55588 | 6074 ft | 288 kts | 96° |
| 2026-04-30 08:59 | -37.80150 | 144.58083 | 5894 ft | 287 kts | 96° |
| 2026-04-30 09:00 | -37.80466 | 144.60586 | 5501 ft | 288 kts | 96° |
| 2026-04-30 09:00 | -37.80781 | 144.63082 | 5147 ft | 286 kts | 96° |
| 2026-04-30 09:00 | -37.81089 | 144.65524 | 4960 ft | 277 kts | 96° |
| 2026-04-30 09:00 | -37.81385 | 144.67841 | 4651 ft | 260 kts | 95° |
| 2026-04-30 09:01 | -37.81661 | 144.70054 | 4368 ft | 252 kts | 95° |
| 2026-04-30 09:01 | -37.81868 | 144.72053 | 4161 ft | 242 kts | 97° |
| 2026-04-30 09:01 | -37.82438 | 144.74035 | 3940 ft | 235 kts | 114° |
| 2026-04-30 09:01 | -37.83192 | 144.75796 | 3768 ft | 221 kts | 115° |
| 2026-04-30 09:02 | -37.84261 | 144.79238 | 3211 ft | 198 kts | 86° |
| 2026-04-30 09:02 | -37.84172 | 144.80915 | 2860 ft | 188 kts | 76° |
| 2026-04-30 09:02 | -37.83976 | 144.82551 | 2552 ft | 187 kts | 75° |
| 2026-04-30 09:03 | -37.83765 | 144.84169 | 2489 ft | 185 kts | 73° |
| 2026-04-30 09:03 | -37.83274 | 144.85629 | 2487 ft | 178 kts | 47° |
| 2026-04-30 09:03 | -37.82294 | 144.86464 | 2485 ft | 168 kts | 13° |
| 2026-04-30 09:03 | -37.81171 | 144.86523 | 2498 ft | 155 kts | 353° |
| 2026-04-30 09:04 | -37.80168 | 144.86331 | 2484 ft | 138 kts | 351° |
| 2026-04-30 09:04 | -37.79249 | 144.86136 | 2410 ft | 133 kts | 352° |
| 2026-04-30 09:04 | -37.78350 | 144.85954 | 2232 ft | 129 kts | 352° |
| 2026-04-30 09:04 | -37.77462 | 144.85777 | 2058 ft | 129 kts | 353° |
| 2026-04-30 09:05 | -37.76580 | 144.85606 | 1886 ft | 128 kts | 353° |
| 2026-04-30 09:05 | -37.75701 | 144.85438 | 1724 ft | 128 kts | 353° |
| 2026-04-30 09:05 | -37.74817 | 144.85274 | 1552 ft | 128 kts | 354° |
| 2026-04-30 09:05 | -37.73946 | 144.85118 | 1367 ft | 129 kts | 353° |
| 2026-04-30 09:06 | -37.73056 | 144.84946 | 1199 ft | 130 kts | 353° |
| 2026-04-30 09:06 | -37.72151 | 144.84775 | 1024 ft | 133 kts | 353° |
| 2026-04-30 09:06 | -37.71220 | 144.84598 | 850 ft | 135 kts | 353° |
| 2026-04-30 09:06 | -37.70299 | 144.84427 | 680 ft | 135 kts | 352° |
| 2026-04-30 09:07 | -37.69368 | 144.84224 | 612 ft | 137 kts | 351° |
| 2026-04-30 09:07 | -37.68404 | 144.84030 | 395 ft | 140 kts | 356° |
| 2026-04-30 09:07 | -37.67507 | 144.83904 | 374 ft | 113 kts | 351° |
| 2026-04-30 09:07 | -37.67044 | 144.83834 | 390 ft | 23 kts | 6° |
| 2026-04-30 09:08 | -37.66898 | 144.83883 | 393 ft | 21 kts | 21° |
| 2026-04-30 09:08 | -37.66832 | 144.83918 | 397 ft | 0 kts | 22° |
| 2026-04-30 09:08 | -37.66831 | 144.83918 | 397 ft | 1 kts | 22° |
| 2026-04-30 09:08 | -37.66816 | 144.83926 | 395 ft | 4 kts | 22° |
| 2026-04-30 09:09 | -37.66780 | 144.83945 | 397 ft | 7 kts | 24° |
| 2026-04-30 09:09 | -37.66735 | 144.83980 | 397 ft | 8 kts | 45° |
| 2026-04-30 09:09 | -37.66721 | 144.84035 | 397 ft | 8 kts | 77° |
| 2026-04-30 09:09 | -37.66721 | 144.84113 | 394 ft | 9 kts | 117° |
| 2026-04-30 09:10 | -37.66767 | 144.84174 | 384 ft | 10 kts | 133° |
| 2026-04-30 09:10 | -37.66773 | 144.84206 | 387 ft | 3 kts | 91° |
| 2026-04-30 09:10 | -37.66771 | 144.84247 | 403 ft | 6 kts | 83° |
| 2026-04-30 09:10 | -37.66769 | 144.84269 | 400 ft | 4 kts | 83° |
| 2026-04-30 09:11 | -37.66766 | 144.84294 | 396 ft | 1 kts | 81° |
| 2026-04-30 09:11 | -37.66765 | 144.84302 | 396 ft | 0 kts | 81° |